PWSweather.com
Personal Weather Stations
Station Observations
BALTRELAY
Relay, Baltimore, MD 21227

RelayBaltimore, MD 21227

Lat: 39.24588, Lon: -76.719772

Elevation: 221

Station Type: Davis Vantage Pro2 (6153)

http://www.relayweather.com

Latest ConditionsUpdated 7:50:01 AM GMT Tuesday, Jun 28, 2016
Currently Today's Max Today's Min Today's Average
Temperature 71.7°F22.1°C 76.5°F24.7°C 71.7°F22.1°C 74.0°F23.3°C
Dew Point 68.6°F20.3°C 68.8°F20.4°C 64.9°F18.3°C 67.0°F19.4°C
Winds Calm Calm 5.8 mph SSE9.3 kmh SSE - 2.3 mph 3.7 kmh
Wind Gusts -- 11.5 mph18.5 kmh - -
Humidity 90% 90% 70% 79%
Pressure 29.91 in1012.9 mb 29.97 in1014.9 mb 29.91 in1012.9 mb -
Hour Temp Dew Point Humidity Winds Wind Gusts Pressure Precip Precip Rate Daily Precip Total
07:50 AM 71.7°F22.1°C 68.6°F20.3°C 90% Calm Calm -- 29.91 in1012.9 mb - 0.00 in0.0 mm 0.00 in0.0 mm
07:45 AM 71.9°F22.2°C 68.8°F20.4°C 90% Calm Calm -- 29.91 in1012.9 mb - 0.00 in0.0 mm 0.00 in0.0 mm
07:40 AM 71.9°F22.2°C 68.8°F20.4°C 90% Calm Calm -- 29.91 in1012.9 mb - 0.00 in0.0 mm 0.00 in0.0 mm
07:30 AM 71.8°F22.1°C 68.4°F20.2°C 89% Calm Calm -- 29.91 in1012.9 mb - 0.00 in0.0 mm 0.00 in0.0 mm
07:20 AM 72.1°F22.3°C 68.6°F20.3°C 89% Calm Calm -- 29.91 in1012.9 mb - 0.00 in0.0 mm 0.00 in0.0 mm
07:15 AM 72.0°F22.2°C 68.6°F20.3°C 89% Calm Calm -- 29.92 in1013.2 mb - 0.00 in0.0 mm 0.00 in0.0 mm
07:10 AM 71.9°F22.2°C 68.5°F20.3°C 89% Calm Calm -- 29.92 in1013.2 mb - 0.00 in0.0 mm 0.00 in0.0 mm
07:00 AM 71.9°F22.2°C 68.1°F20.1°C 88% Calm Calm -- 29.92 in1013.2 mb - 0.00 in0.0 mm 0.00 in0.0 mm
06:50 AM 71.9°F22.2°C 68.1°F20.1°C 88% Calm Calm -- 29.92 in1013.2 mb - 0.00 in0.0 mm 0.00 in0.0 mm
06:45 AM 71.9°F22.2°C 68.1°F20.1°C 88% 1.2 mph S1.9 kmh S 4.6 mph7.4 kmh 29.93 in1013.5 mb - 0.00 in0.0 mm 0.00 in0.0 mm
06:40 AM 71.9°F22.2°C 68.1°F20.1°C 88% 1.2 mph SSW1.9 kmh SSW 4.6 mph7.4 kmh 29.93 in1013.5 mb - 0.00 in0.0 mm 0.00 in0.0 mm
06:30 AM 72.0°F22.2°C 67.9°F19.9°C 87% Calm Calm 4.6 mph7.4 kmh 29.93 in1013.5 mb - 0.00 in0.0 mm 0.00 in0.0 mm
06:20 AM 72.1°F22.3°C 68.0°F20.0°C 87% 2.3 mph S3.7 kmh S 3.5 mph5.6 kmh 29.93 in1013.5 mb - 0.00 in0.0 mm 0.00 in0.0 mm
06:15 AM 72.2°F22.3°C 68.1°F20.1°C 87% 2.3 mph S3.7 kmh S 5.8 mph9.3 kmh 29.93 in1013.5 mb - 0.00 in0.0 mm 0.00 in0.0 mm
06:10 AM 72.2°F22.3°C 68.1°F20.1°C 87% 3.5 mph S5.6 kmh S 4.6 mph7.4 kmh 29.93 in1013.5 mb - 0.00 in0.0 mm 0.00 in0.0 mm
06:00 AM 72.2°F22.3°C 67.7°F19.8°C 86% 4.6 mph SSE7.4 kmh SSE 5.8 mph9.3 kmh 29.93 in1013.5 mb - 0.00 in0.0 mm 0.00 in0.0 mm
05:50 AM 72.2°F22.3°C 67.8°F19.9°C 86% Calm Calm -- 29.94 in1013.9 mb - 0.00 in0.0 mm 0.00 in0.0 mm
05:45 AM 72.3°F22.4°C 67.8°F19.9°C 86% Calm Calm -- 29.94 in1013.9 mb - 0.00 in0.0 mm 0.00 in0.0 mm
05:40 AM 72.4°F22.4°C 67.6°F19.8°C 85% 2.3 mph S3.7 kmh S 3.5 mph5.6 kmh 29.93 in1013.5 mb - 0.00 in0.0 mm 0.00 in0.0 mm
05:30 AM 72.6°F22.6°C 67.5°F19.7°C 84% Calm Calm -- 29.94 in1013.9 mb - 0.00 in0.0 mm 0.00 in0.0 mm
05:20 AM 72.8°F22.7°C 67.7°F19.8°C 84% 3.5 mph S5.6 kmh S 4.6 mph7.4 kmh 29.94 in1013.9 mb - 0.00 in0.0 mm 0.00 in0.0 mm
05:15 AM 73.0°F22.8°C 67.9°F19.9°C 84% 2.3 mph S3.7 kmh S 4.6 mph7.4 kmh 29.94 in1013.9 mb - 0.00 in0.0 mm 0.00 in0.0 mm
05:10 AM 73.0°F22.8°C 67.5°F19.7°C 83% 4.6 mph S7.4 kmh S 5.8 mph9.3 kmh 29.95 in1014.2 mb - 0.00 in0.0 mm 0.00 in0.0 mm
05:00 AM 73.2°F22.9°C 67.7°F19.8°C 83% 3.5 mph S5.6 kmh S 4.6 mph7.4 kmh 29.95 in1014.2 mb - 0.00 in0.0 mm 0.00 in0.0 mm
04:50 AM 73.4°F23.0°C 67.6°F19.8°C 82% 1.2 mph S1.9 kmh S 4.6 mph7.4 kmh 29.95 in1014.2 mb - 0.00 in0.0 mm 0.00 in0.0 mm
04:45 AM 73.6°F23.1°C 67.4°F19.7°C 81% 2.3 mph S3.7 kmh S 4.6 mph7.4 kmh 29.95 in1014.2 mb - 0.00 in0.0 mm 0.00 in0.0 mm
04:40 AM 73.7°F23.2°C 67.5°F19.7°C 81% 3.5 mph S5.6 kmh S 5.8 mph9.3 kmh 29.95 in1014.2 mb - 0.00 in0.0 mm 0.00 in0.0 mm
04:30 AM 73.8°F23.2°C 67.2°F19.6°C 80% 2.3 mph S3.7 kmh S 2.3 mph3.7 kmh 29.95 in1014.2 mb - 0.00 in0.0 mm 0.00 in0.0 mm
04:20 AM 73.9°F23.3°C 67.0°F19.4°C 79% 4.6 mph SSE7.4 kmh SSE 5.8 mph9.3 kmh 29.95 in1014.2 mb - 0.00 in0.0 mm 0.00 in0.0 mm
04:15 AM 74.0°F23.3°C 67.1°F19.5°C 79% 4.6 mph SSE7.4 kmh SSE 6.9 mph11.1 kmh 29.95 in1014.2 mb - 0.00 in0.0 mm 0.00 in0.0 mm
04:10 AM 74.2°F23.4°C 67.3°F19.6°C 79% 5.8 mph S9.3 kmh S 5.8 mph9.3 kmh 29.95 in1014.2 mb - 0.00 in0.0 mm 0.00 in0.0 mm
04:00 AM 74.5°F23.6°C 66.8°F19.3°C 77% 4.6 mph S7.4 kmh S 6.9 mph11.1 kmh 29.95 in1014.2 mb - 0.00 in0.0 mm 0.00 in0.0 mm
03:50 AM 74.5°F23.6°C 66.8°F19.3°C 77% 3.5 mph S5.6 kmh S 5.8 mph9.3 kmh 29.96 in1014.6 mb - 0.00 in0.0 mm 0.00 in0.0 mm
03:45 AM 74.5°F23.6°C 66.4°F19.1°C 76% 1.2 mph S1.9 kmh S 4.6 mph7.4 kmh 29.96 in1014.6 mb - 0.00 in0.0 mm 0.00 in0.0 mm
03:40 AM 74.5°F23.6°C 66.4°F19.1°C 76% Calm Calm 1.2 mph1.9 kmh 29.96 in1014.6 mb - 0.00 in0.0 mm 0.00 in0.0 mm
03:30 AM 74.8°F23.8°C 66.4°F19.1°C 75% 1.2 mph S1.9 kmh S -- 29.96 in1014.6 mb - 0.00 in0.0 mm 0.00 in0.0 mm
03:20 AM 74.8°F23.8°C 65.9°F18.8°C 74% Calm Calm -- 29.96 in1014.6 mb - 0.00 in0.0 mm 0.00 in0.0 mm
03:15 AM 74.8°F23.8°C 66.0°F18.9°C 74% 2.3 mph SSE3.7 kmh SSE 4.6 mph7.4 kmh 29.96 in1014.6 mb - 0.00 in0.0 mm 0.00 in0.0 mm
03:10 AM 74.9°F23.8°C 66.0°F18.9°C 74% 1.2 mph SSE1.9 kmh SSE 3.5 mph5.6 kmh 29.96 in1014.6 mb - 0.00 in0.0 mm 0.00 in0.0 mm
03:00 AM 74.8°F23.8°C 65.5°F18.6°C 73% Calm Calm -- 29.96 in1014.6 mb - 0.00 in0.0 mm 0.00 in0.0 mm
02:50 AM 74.8°F23.8°C 65.6°F18.7°C 73% Calm Calm -- 29.97 in1014.9 mb - 0.00 in0.0 mm 0.00 in0.0 mm
02:45 AM 74.9°F23.8°C 65.6°F18.7°C 73% Calm Calm -- 29.97 in1014.9 mb - 0.00 in0.0 mm 0.00 in0.0 mm
02:40 AM 74.9°F23.8°C 65.3°F18.5°C 72% Calm Calm -- 29.97 in1014.9 mb - 0.00 in0.0 mm 0.00 in0.0 mm
02:30 AM 75.1°F23.9°C 65.4°F18.6°C 72% 1.2 mph SSE1.9 kmh SSE 3.5 mph5.6 kmh 29.97 in1014.9 mb - 0.00 in0.0 mm 0.00 in0.0 mm
02:20 AM 75.2°F24.0°C 65.1°F18.4°C 71% 2.3 mph SSE3.7 kmh SSE 5.8 mph9.3 kmh 29.97 in1014.9 mb - 0.00 in0.0 mm 0.00 in0.0 mm
02:15 AM 75.3°F24.1°C 65.2°F18.4°C 71% 3.5 mph SSE5.6 kmh SSE 6.9 mph11.1 kmh 29.97 in1014.9 mb - 0.00 in0.0 mm 0.00 in0.0 mm
02:10 AM 75.4°F24.1°C 65.3°F18.5°C 71% 1.2 mph SSE1.9 kmh SSE 4.6 mph7.4 kmh 29.97 in1014.9 mb - 0.00 in0.0 mm 0.00 in0.0 mm
02:00 AM 75.4°F24.1°C 64.9°F18.3°C 70% 3.5 mph SSE5.6 kmh SSE 4.6 mph7.4 kmh 29.97 in1014.9 mb - 0.00 in0.0 mm 0.00 in0.0 mm
01:50 AM 75.5°F24.2°C 65.4°F18.6°C 71% 3.5 mph SSE5.6 kmh SSE 4.6 mph7.4 kmh 29.97 in1014.9 mb - 0.00 in0.0 mm 0.00 in0.0 mm
01:45 AM 75.4°F24.1°C 65.3°F18.5°C 71% 3.5 mph SE5.6 kmh SE 8.1 mph13.0 kmh 29.97 in1014.9 mb - 0.00 in0.0 mm 0.00 in0.0 mm
01:40 AM 75.4°F24.1°C 65.3°F18.5°C 71% 3.5 mph SSE5.6 kmh SSE 5.8 mph9.3 kmh 29.97 in1014.9 mb - 0.00 in0.0 mm 0.00 in0.0 mm
01:30 AM 75.4°F24.1°C 65.3°F18.5°C 71% 2.3 mph SE3.7 kmh SE 4.6 mph7.4 kmh 29.97 in1014.9 mb - 0.00 in0.0 mm 0.00 in0.0 mm
01:20 AM 75.6°F24.2°C 65.9°F18.8°C 72% 4.6 mph SSE7.4 kmh SSE 8.1 mph13.0 kmh 29.97 in1014.9 mb - 0.00 in0.0 mm 0.00 in0.0 mm
01:15 AM 75.6°F24.2°C 66.0°F18.9°C 72% 4.6 mph SSE7.4 kmh SSE 6.9 mph11.1 kmh 29.96 in1014.6 mb - 0.00 in0.0 mm 0.00 in0.0 mm
01:10 AM 75.7°F24.3°C 66.0°F18.9°C 72% 5.8 mph SSE9.3 kmh SSE 8.1 mph13.0 kmh 29.96 in1014.6 mb - 0.00 in0.0 mm 0.00 in0.0 mm
01:00 AM 75.9°F24.4°C 66.3°F19.1°C 72% 3.5 mph S5.6 kmh S 6.9 mph11.1 kmh 29.96 in1014.6 mb - 0.00 in0.0 mm 0.00 in0.0 mm
12:50 AM 76.0°F24.4°C 66.3°F19.1°C 72% 3.5 mph S5.6 kmh S 6.9 mph11.1 kmh 29.96 in1014.6 mb - 0.00 in0.0 mm 0.00 in0.0 mm
12:45 AM 76.1°F24.5°C 66.4°F19.1°C 72% 4.6 mph SE7.4 kmh SE 5.8 mph9.3 kmh 29.96 in1014.6 mb - 0.00 in0.0 mm 0.00 in0.0 mm
12:40 AM 76.2°F24.6°C 66.5°F19.2°C 72% 5.8 mph SSE9.3 kmh SSE 5.8 mph9.3 kmh 29.96 in1014.6 mb - 0.00 in0.0 mm 0.00 in0.0 mm
12:30 AM 76.4°F24.7°C 67.1°F19.5°C 73% 4.6 mph S7.4 kmh S 11.5 mph18.5 kmh 29.96 in1014.6 mb - 0.00 in0.0 mm 0.00 in0.0 mm
12:20 AM 76.5°F24.7°C 67.2°F19.6°C 73% 4.6 mph SSE7.4 kmh SSE 6.9 mph11.1 kmh 29.96 in1014.6 mb - 0.00 in0.0 mm 0.00 in0.0 mm
12:15 AM 76.5°F24.7°C 67.6°F19.8°C 74% 4.6 mph S7.4 kmh S 6.9 mph11.1 kmh 29.96 in1014.6 mb - 0.00 in0.0 mm 0.00 in0.0 mm
12:10 AM 76.5°F24.7°C 67.6°F19.8°C 74% 4.6 mph S7.4 kmh S 5.8 mph9.3 kmh 29.96 in1014.6 mb - 0.00 in0.0 mm 0.00 in0.0 mm
12:00 AM 76.5°F24.7°C 68.0°F20.0°C 75% 4.6 mph SSW7.4 kmh SSW 4.6 mph7.4 kmh 29.96 in1014.6 mb - 0.00 in0.0 mm 0.00 in0.0 mm